Weather at Kenora Airport

Public forecast

Using degrees Celsius for public forecast. Weather courtesy of forecast.io.

Current aviation weather report (METAR) for Kenora Airport

Retrieved 2021/04/17 21:00 UTC (19 minutes ago):

CYQK 172100Z CCA 35007KT 280V360 20SM FEW065 12/M05 A2997 RMK SC2 SLP162

Aviation forecast (TAF) for Kenora Airport

Retrieved 2021/04/17 20:39 UTC (40 minutes ago):

TAF CYQK 171938Z 1720/1808 30012KT P6SM SCT080 BECMG 1800/1802 VRB03KT SCT120 RMK NXT FCST BY 180200Z